Time;durP1;ratioP1;P1;durP2;ratioP2;P2;SDS_P1;SDS_P2;PMS_P1;PMS_P2;Temp;Humidity;BMP_temperature;BMP_pressure;BME280_temperature;BME280_humidity;BME280_pressure;Samples;Min_cycle;Max_cycle;Signal;HPM_P1;HPM_P2
2023/06/21 00:02:10;;;;;;;33.47;30.67;;;21.10;76.20;;;;;;6265076;28;20245;-81
2023/06/21 00:09:12;;;;;;;34.53;31.83;;;21.10;76.20;;;;;;6258020;28;20238;-85
2023/06/21 00:12:15;;;;;;;34.30;31.23;;;21.10;76.20;;;;;;6263378;28;20242;-83
2023/06/21 00:15:18;;;;;;;32.17;29.67;;;21.00;76.10;;;;;;6279725;28;20744;-82
2023/06/21 00:18:25;;;;;;;33.70;31.00;;;21.00;76.00;;;;;;6284838;28;20280;-82
2023/06/21 00:21:28;;;;;;;32.13;29.57;;;21.00;76.00;;;;;;6292685;28;20453;-82
2023/06/21 00:24:31;;;;;;;31.23;28.53;;;20.90;76.10;;;;;;6286028;28;20942;-84
2023/06/21 00:27:35;;;;;;;30.70;28.30;;;20.90;76.10;;;;;;6280766;28;20233;-82
2023/06/21 00:30:38;;;;;;;31.43;28.87;;;20.90;76.10;;;;;;6269551;28;20241;-82
2023/06/21 00:33:43;;;;;;;31.03;28.63;;;20.90;76.10;;;;;;6270150;28;20615;-82
2023/06/21 00:36:46;;;;;;;29.00;26.80;;;20.80;76.20;;;;;;6264184;28;20265;-82
2023/06/21 00:39:49;;;;;;;33.03;30.40;;;20.80;76.10;;;;;;6263010;28;20429;-84
2023/06/21 00:42:53;;;;;;;29.03;26.67;;;20.80;76.20;;;;;;6260155;28;20815;-84
2023/06/21 00:45:57;;;;;;;29.70;27.30;;;20.70;76.20;;;;;;6268683;28;20303;-83
2023/06/21 00:49:01;;;;;;;32.40;29.80;;;20.70;76.10;;;;;;6251986;28;20269;-80
2023/06/21 00:52:06;;;;;;;29.13;26.80;;;20.70;76.10;;;;;;6260145;28;20269;-82
2023/06/21 00:55:12;;;;;;;32.47;29.87;;;20.70;76.10;;;;;;6249964;28;20252;-83
2023/06/21 00:58:20;;;;;;;28.70;26.20;;;20.60;76.10;;;;;;6250841;28;20246;-82
2023/06/21 01:01:23;;;;;;;29.20;26.83;;;20.70;76.20;;;;;;6255218;28;20284;-83
2023/06/21 01:04:31;;;;;;;30.90;28.43;;;20.60;76.20;;;;;;6261532;28;20234;-81
2023/06/21 01:07:43;;;;;;;28.03;25.83;;;20.60;76.30;;;;;;6273267;28;20230;-82
2023/06/21 01:10:55;;;;;;;28.63;26.43;;;20.60;76.30;;;;;;6262455;28;20225;-83
2023/06/21 01:14:10;;;;;;;29.97;27.60;;;20.60;76.20;;;;;;6299525;28;20260;-82
2023/06/21 01:17:14;;;;;;;28.90;26.67;;;20.70;76.20;;;;;;6279125;28;20260;-82
2023/06/21 01:20:24;;;;;;;28.73;26.43;;;20.70;76.20;;;;;;6276061;28;20237;-82
2023/06/21 01:23:46;;;;;;;35.77;32.43;;;20.70;76.10;;;;;;6274257;28;20237;-82
2023/06/21 01:26:59;;;;;;;29.00;26.70;;;20.70;76.20;;;;;;6285974;28;20222;-80
2023/06/21 01:30:06;;;;;;;29.03;26.63;;;20.70;76.10;;;;;;6290688;28;20299;-80
2023/06/21 01:33:10;;;;;;;29.33;26.93;;;20.70;76.00;;;;;;6289654;28;20977;-81
2023/06/21 01:36:14;;;;;;;27.67;25.57;;;20.70;75.90;;;;;;6269429;28;20315;-83
2023/06/21 01:39:17;;;;;;;32.23;29.63;;;20.70;75.80;;;;;;6277249;28;20230;-82
2023/06/21 01:42:20;;;;;;;29.63;27.23;;;20.80;75.70;;;;;;6287691;28;20237;-82
2023/06/21 01:45:25;;;;;;;28.90;26.60;;;20.80;75.70;;;;;;6274799;28;20313;-82
2023/06/21 01:48:29;;;;;;;28.07;25.77;;;20.80;75.60;;;;;;6275852;28;20224;-81
2023/06/21 01:51:35;;;;;;;27.50;25.27;;;20.90;75.50;;;;;;6249848;28;20320;-83
2023/06/21 01:54:41;;;;;;;28.77;26.57;;;20.90;75.40;;;;;;6263312;28;20269;-84
2023/06/21 01:57:44;;;;;;;29.53;27.13;;;20.90;75.30;;;;;;6266939;28;20230;-82
2023/06/21 02:00:51;;;;;;;29.50;27.10;;;20.90;75.20;;;;;;6255525;28;20415;-81
2023/06/21 02:03:59;;;;;;;27.17;24.97;;;20.90;75.10;;;;;;6278137;28;20290;-81
2023/06/21 02:07:04;;;;;;;28.57;26.37;;;20.90;74.90;;;;;;6268761;28;20249;-84
2023/06/21 02:10:09;;;;;;;26.70;24.50;;;21.00;74.80;;;;;;6259617;28;20275;-81
2023/06/21 02:13:13;;;;;;;25.53;23.53;;;21.00;74.70;;;;;;6259122;28;20623;-82
2023/06/21 02:16:17;;;;;;;26.30;24.30;;;21.00;74.60;;;;;;6266835;28;20265;-81
2023/06/21 02:19:20;;;;;;;26.07;23.97;;;21.00;74.50;;;;;;6256401;28;20348;-82
2023/06/21 02:22:24;;;;;;;25.63;23.63;;;21.00;74.50;;;;;;6263692;28;20238;-81
2023/06/21 02:25:27;;;;;;;26.30;24.20;;;21.00;74.50;;;;;;6257829;28;20238;-81
2023/06/21 02:28:30;;;;;;;32.03;29.13;;;21.00;74.50;;;;;;6241078;28;20226;-83
2023/06/21 02:31:35;;;;;;;35.00;32.00;;;21.10;74.90;;;;;;6252066;28;20241;-84
2023/06/21 02:34:38;;;;;;;32.57;29.77;;;21.00;75.30;;;;;;6253692;28;20841;-79
2023/06/21 02:37:41;;;;;;;34.90;31.87;;;21.00;75.40;;;;;;6252770;28;20261;-79
2023/06/21 02:40:44;;;;;;;31.43;28.80;;;20.90;75.90;;;;;;6263321;28;20309;-79
2023/06/21 02:43:47;;;;;;;36.00;32.70;;;20.80;76.60;;;;;;6254238;28;20309;-80
2023/06/21 02:46:54;;;;;;;37.13;33.93;;;20.80;76.90;;;;;;6266267;28;20248;-79
2023/06/21 02:49:57;;;;;;;36.13;33.03;;;20.70;77.10;;;;;;6258676;28;20330;-81
2023/06/21 02:53:01;;;;;;;37.53;34.07;;;20.70;77.10;;;;;;6263326;28;20892;-82
2023/06/21 02:56:04;;;;;;;36.73;33.40;;;20.70;77.40;;;;;;6252570;28;20350;-82
2023/06/21 02:59:08;;;;;;;36.17;32.90;;;20.60;77.60;;;;;;6246881;28;20289;-81
2023/06/21 03:02:16;;;;;;;41.10;37.50;;;20.60;78.00;;;;;;6255049;28;20246;-81
2023/06/21 03:05:20;;;;;;;36.07;32.97;;;20.50;78.70;;;;;;6263877;28;20773;-80
2023/06/21 03:08:23;;;;;;;35.70;32.70;;;20.50;78.60;;;;;;6246660;28;20733;-81
2023/06/21 03:11:26;;;;;;;33.40;30.53;;;20.50;78.90;;;;;;6257297;28;20242;-81
2023/06/21 03:14:29;;;;;;;34.93;32.03;;;20.50;79.00;;;;;;6271916;28;20240;-82
2023/06/21 03:17:33;;;;;;;37.17;33.90;;;20.50;79.20;;;;;;6260196;28;20287;-79
2023/06/21 03:20:36;;;;;;;37.33;33.87;;;20.50;79.40;;;;;;6259929;28;20871;-79
2023/06/21 03:23:40;;;;;;;35.83;32.60;;;20.50;79.50;;;;;;6262762;28;20226;-79
2023/06/21 03:26:44;;;;;;;38.47;35.13;;;20.50;79.70;;;;;;6249085;28;20871;-80
2023/06/21 03:29:47;;;;;;;37.47;34.10;;;20.50;79.80;;;;;;6256032;28;20238;-78
2023/06/21 03:32:52;;;;;;;36.00;32.97;;;20.50;80.00;;;;;;6253643;28;20269;-82
2023/06/21 03:35:55;;;;;;;36.87;33.73;;;20.50;80.10;;;;;;6253311;28;20245;-81
2023/06/21 03:38:58;;;;;;;34.93;32.13;;;20.50;80.20;;;;;;6258464;28;20317;-83
2023/06/21 03:42:01;;;;;;;36.47;33.27;;;20.50;80.30;;;;;;6247630;28;20314;-80
2023/06/21 03:45:06;;;;;;;44.50;40.47;;;20.50;80.50;;;;;;6251236;28;20261;-81
2023/06/21 03:48:10;;;;;;;44.13;40.13;;;20.60;81.00;;;;;;6268841;28;20245;-80
2023/06/21 03:51:13;;;;;;;47.10;42.77;;;20.60;80.80;;;;;;6259339;28;22606;-78
2023/06/21 03:54:17;;;;;;;43.73;39.70;;;20.50;81.10;;;;;;6260080;28;20324;-79
2023/06/21 03:57:20;;;;;;;41.77;38.27;;;20.50;81.00;;;;;;6281742;28;20250;-81
2023/06/21 04:00:23;;;;;;;35.60;32.77;;;20.50;81.00;;;;;;6277011;28;20616;-82
2023/06/21 04:03:28;;;;;;;41.50;37.97;;;20.50;81.00;;;;;;6256950;28;20234;-81
2023/06/21 04:06:31;;;;;;;39.50;36.10;;;20.60;80.90;;;;;;6265616;28;21361;-82
2023/06/21 04:09:34;;;;;;;40.60;37.07;;;20.60;80.90;;;;;;6281773;28;20279;-81
2023/06/21 04:12:38;;;;;;;39.43;35.93;;;20.60;80.90;;;;;;6279741;28;20311;-82
2023/06/21 04:15:41;;;;;;;37.27;34.17;;;20.60;80.80;;;;;;6261620;28;20619;-80
2023/06/21 04:18:45;;;;;;;38.60;35.30;;;20.70;80.80;;;;;;6263502;28;20237;-80
2023/06/21 04:21:48;;;;;;;40.20;36.60;;;20.70;80.90;;;;;;6278389;28;20288;-82
2023/06/21 04:24:52;;;;;;;40.73;37.20;;;20.70;80.90;;;;;;6273011;28;20354;-82
2023/06/21 04:27:55;;;;;;;41.53;38.03;;;20.80;80.80;;;;;;6281316;28;20233;-80
2023/06/21 04:31:00;;;;;;;40.53;37.17;;;20.90;80.90;;;;;;6278488;28;20253;-82
2023/06/21 04:34:05;;;;;;;39.73;36.33;;;20.90;80.90;;;;;;6280407;28;20667;-83
2023/06/21 04:37:08;;;;;;;46.13;42.00;;;21.00;80.90;;;;;;6282030;28;20237;-82
2023/06/21 04:40:14;;;;;;;50.03;45.43;;;21.10;80.80;;;;;;6276497;28;20889;-82
2023/06/21 04:43:21;;;;;;;49.97;45.27;;;21.10;80.80;;;;;;6282676;28;20825;-82
2023/06/21 04:46:27;;;;;;;41.60;37.97;;;21.10;80.70;;;;;;6274599;28;20244;-82
2023/06/21 04:49:32;;;;;;;52.00;47.17;;;21.20;80.70;;;;;;6300954;28;20309;-82
2023/06/21 04:52:37;;;;;;;43.10;39.50;;;21.30;80.60;;;;;;6280209;28;20702;-83
2023/06/21 04:55:42;;;;;;;46.77;42.77;;;21.40;80.50;;;;;;6280283;28;20768;-80
2023/06/21 04:58:45;;;;;;;45.17;41.30;;;21.50;80.40;;;;;;6284115;28;20839;-79
2023/06/21 05:01:48;;;;;;;45.27;41.30;;;21.60;80.20;;;;;;6266856;28;20229;-78
2023/06/21 05:04:53;;;;;;;42.03;38.37;;;21.70;80.00;;;;;;6274197;28;20225;-80
2023/06/21 05:07:57;;;;;;;49.63;45.07;;;21.70;80.00;;;;;;6268995;28;20252;-80
2023/06/21 05:11:00;;;;;;;46.13;42.03;;;21.70;79.60;;;;;;6270418;28;20308;-80
2023/06/21 05:14:03;;;;;;;52.77;47.87;;;21.70;79.50;;;;;;6281955;28;20247;-78
2023/06/21 05:17:07;;;;;;;53.50;48.53;;;21.70;79.10;;;;;;6286169;28;20253;-79
2023/06/21 05:20:12;;;;;;;48.27;43.77;;;21.70;79.10;;;;;;6262443;28;20843;-78
2023/06/21 05:23:17;;;;;;;48.77;44.43;;;21.80;79.20;;;;;;6267721;28;20260;-78
2023/06/21 05:26:20;;;;;;;39.80;36.30;;;21.90;79.00;;;;;;6282837;28;20248;-78
2023/06/21 05:29:24;;;;;;;47.10;42.93;;;22.10;79.20;;;;;;6280841;28;20389;-79
2023/06/21 05:32:27;;;;;;;47.37;43.23;;;22.50;78.30;;;;;;6276615;28;20253;-79
2023/06/21 05:35:32;;;;;;;44.20;40.27;;;22.70;77.00;;;;;;6270824;28;20230;-79
2023/06/21 05:38:37;;;;;;;42.50;38.73;;;23.00;76.20;;;;;;6284050;28;20932;-80
2023/06/21 05:41:40;;;;;;;44.27;40.17;;;23.20;75.50;;;;;;6280410;28;20233;-81
2023/06/21 05:44:43;;;;;;;42.93;39.23;;;23.40;74.80;;;;;;6287103;28;20245;-80
2023/06/21 05:47:46;;;;;;;42.47;38.57;;;23.60;74.10;;;;;;6268263;28;20291;-80
2023/06/21 05:50:51;;;;;;;40.10;36.60;;;23.70;73.50;;;;;;6260622;28;20242;-79
2023/06/21 05:53:56;;;;;;;41.27;37.77;;;24.00;72.90;;;;;;6277538;28;20285;-79
2023/06/21 05:56:59;;;;;;;41.80;37.97;;;24.00;72.00;;;;;;6286547;28;20230;-80
2023/06/21 06:00:05;;;;;;;41.60;38.00;;;23.80;72.20;;;;;;6282055;28;20335;-81
2023/06/21 06:03:08;;;;;;;38.20;34.90;;;23.60;72.30;;;;;;6266740;28;20253;-81
2023/06/21 06:06:15;;;;;;;39.57;36.07;;;23.40;72.60;;;;;;6261893;28;20240;-79
2023/06/21 06:09:34;;;;;;;40.43;36.77;;;23.40;72.90;;;;;;6287399;28;20302;-80
2023/06/21 06:12:37;;;;;;;36.93;33.93;;;23.40;72.80;;;;;;6283234;28;20294;-78
2023/06/21 06:15:41;;;;;;;38.07;34.67;;;23.10;72.90;;;;;;6290061;28;20233;-79
2023/06/21 06:18:44;;;;;;;32.77;30.07;;;23.10;73.00;;;;;;6284766;28;20316;-78
2023/06/21 06:21:48;;;;;;;38.47;35.07;;;23.10;73.20;;;;;;6285853;28;20229;-79
2023/06/21 06:24:52;;;;;;;39.13;35.80;;;23.10;73.10;;;;;;6287166;28;20221;-78
2023/06/21 06:27:56;;;;;;;37.17;34.03;;;23.20;73.40;;;;;;6282782;28;20230;-80
2023/06/21 06:30:59;;;;;;;40.27;36.87;;;23.30;73.50;;;;;;6288606;28;20236;-80
2023/06/21 06:34:02;;;;;;;39.93;36.60;;;23.40;73.90;;;;;;6278426;28;20733;-80
2023/06/21 06:37:08;;;;;;;37.07;33.77;;;23.60;72.60;;;;;;6286902;28;20718;-81
2023/06/21 06:40:16;;;;;;;38.83;35.37;;;24.10;72.10;;;;;;6262697;28;20237;-81
2023/06/21 06:43:20;;;;;;;38.07;34.77;;;24.50;70.40;;;;;;6261987;28;20637;-81
2023/06/21 06:46:23;;;;;;;37.77;34.47;;;24.90;68.90;;;;;;6254999;28;20280;-79
2023/06/21 06:49:26;;;;;;;33.87;30.90;;;24.90;68.20;;;;;;6261606;28;20229;-79
2023/06/21 06:52:31;;;;;;;32.93;30.07;;;25.20;68.00;;;;;;6262346;28;20242;-79
2023/06/21 06:55:35;;;;;;;35.57;32.43;;;25.30;67.20;;;;;;6260263;28;20240;-79
2023/06/21 06:58:38;;;;;;;33.20;30.50;;;25.00;67.90;;;;;;6263693;28;20745;-80
2023/06/21 07:01:41;;;;;;;32.70;30.00;;;25.20;68.00;;;;;;6265315;28;20248;-78
2023/06/21 07:04:46;;;;;;;31.47;28.97;;;25.60;67.60;;;;;;6262148;28;20229;-80
2023/06/21 07:07:50;;;;;;;31.00;28.50;;;25.90;66.80;;;;;;6260645;28;20640;-81
2023/06/21 07:10:54;;;;;;;32.10;29.60;;;26.00;66.10;;;;;;6257033;28;20308;-80
2023/06/21 07:13:57;;;;;;;30.33;27.73;;;26.20;65.20;;;;;;6259921;28;20245;-80
2023/06/21 07:17:00;;;;;;;31.57;28.80;;;26.40;65.70;;;;;;6261724;28;20238;-81
2023/06/21 07:20:06;;;;;;;32.50;29.77;;;26.40;65.40;;;;;;6256627;28;20233;-81
2023/06/21 07:23:11;;;;;;;31.13;28.53;;;26.50;64.80;;;;;;6259683;28;20230;-80
2023/06/21 07:26:15;;;;;;;29.83;27.33;;;26.40;65.20;;;;;;6262494;28;20244;-81
2023/06/21 07:29:19;;;;;;;30.30;27.90;;;26.20;64.60;;;;;;6263556;28;20743;-80
2023/06/21 07:32:24;;;;;;;30.67;28.27;;;25.90;65.50;;;;;;6260844;28;20249;-82
2023/06/21 07:35:34;;;;;;;26.97;24.77;;;25.50;66.10;;;;;;6232220;28;20723;-80
2023/06/21 07:38:38;;;;;;;25.73;23.40;;;25.30;66.40;;;;;;6235363;28;20233;-80
2023/06/21 07:41:41;;;;;;;25.07;22.87;;;25.00;67.40;;;;;;6230565;28;20231;-82
2023/06/21 07:44:45;;;;;;;25.30;23.40;;;25.00;67.30;;;;;;6228618;28;20242;-79
2023/06/21 07:47:48;;;;;;;22.20;20.50;;;25.20;67.60;;;;;;6233638;28;20624;-80
2023/06/21 07:50:51;;;;;;;23.80;21.90;;;25.10;67.50;;;;;;6228864;28;20307;-79
2023/06/21 07:53:56;;;;;;;22.40;20.60;;;25.00;67.20;;;;;;6240478;28;20230;-79
2023/06/21 07:56:59;;;;;;;22.30;20.30;;;25.20;67.40;;;;;;6225437;28;20306;-81
2023/06/21 08:00:11;;;;;;;21.23;19.63;;;25.40;66.40;;;;;;6232873;28;20309;-80
2023/06/21 08:03:14;;;;;;;20.67;19.03;;;25.60;65.60;;;;;;6235073;28;20246;-81
2023/06/21 08:06:18;;;;;;;20.40;18.77;;;25.60;65.60;;;;;;6245230;28;20313;-80
2023/06/21 08:09:22;;;;;;;18.70;17.30;;;25.60;66.00;;;;;;6263029;28;20242;-81
2023/06/21 08:12:25;;;;;;;18.13;16.93;;;25.30;66.00;;;;;;6222061;28;20249;-82
2023/06/21 08:15:29;;;;;;;20.60;19.00;;;25.40;66.20;;;;;;6239254;28;20344;-81
2023/06/21 08:18:32;;;;;;;18.97;17.57;;;25.40;66.40;;;;;;6232819;28;20815;-80
2023/06/21 08:21:36;;;;;;;20.13;18.53;;;25.40;66.70;;;;;;6219964;28;20247;-80
2023/06/21 08:24:40;;;;;;;19.30;17.80;;;25.20;66.50;;;;;;6236656;28;20320;-84
2023/06/21 08:27:43;;;;;;;18.67;17.17;;;25.40;66.30;;;;;;6235431;28;20235;-80
2023/06/21 08:30:47;;;;;;;18.93;17.50;;;25.60;66.20;;;;;;6236990;28;20693;-81
2023/06/21 08:33:50;;;;;;;18.20;16.83;;;25.80;65.70;;;;;;6230959;28;20227;-81
2023/06/21 08:36:53;;;;;;;18.13;16.63;;;25.60;66.40;;;;;;6233365;28;20717;-80
2023/06/21 08:39:58;;;;;;;16.90;15.73;;;25.80;65.50;;;;;;6218582;28;20829;-80
2023/06/21 08:43:02;;;;;;;17.47;16.07;;;26.00;65.10;;;;;;6241468;28;20281;-80
2023/06/21 08:46:06;;;;;;;16.80;15.57;;;26.10;64.70;;;;;;6226065;28;20322;-81
2023/06/21 08:49:17;;;;;;;17.40;16.10;;;26.40;64.60;;;;;;6232739;28;20238;-80
2023/06/21 08:52:24;;;;;;;17.77;16.20;;;26.50;63.80;;;;;;6236060;28;20248;-81
2023/06/21 08:55:30;;;;;;;16.87;15.63;;;26.60;63.90;;;;;;6228066;28;20357;-81
2023/06/21 08:58:42;;;;;;;15.40;14.23;;;26.40;64.10;;;;;;6235081;28;20810;-80
2023/06/21 09:01:53;;;;;;;16.10;15.00;;;26.50;63.70;;;;;;6236526;28;20265;-80
2023/06/21 09:05:00;;;;;;;15.90;14.80;;;26.50;63.50;;;;;;6236959;28;20239;-80
2023/06/21 09:08:05;;;;;;;15.90;14.80;;;26.10;64.80;;;;;;6237973;28;20231;-83
2023/06/21 09:11:16;;;;;;;14.80;13.70;;;26.40;63.90;;;;;;6257155;28;20242;-80
2023/06/21 09:14:20;;;;;;;14.67;13.57;;;26.50;63.30;;;;;;6255572;28;20908;-80
2023/06/21 09:17:24;;;;;;;13.77;12.77;;;26.80;62.20;;;;;;6244300;28;20247;-79
2023/06/21 09:20:31;;;;;;;13.17;12.30;;;27.00;62.10;;;;;;6265282;28;20317;-81
2023/06/21 09:23:34;;;;;;;11.97;11.27;;;26.60;62.50;;;;;;6252356;28;20244;-81
2023/06/21 09:26:38;;;;;;;14.03;12.83;;;26.60;62.50;;;;;;6257916;28;20245;-81
2023/06/21 09:29:42;;;;;;;12.80;11.90;;;26.70;62.50;;;;;;6249860;28;20770;-81
2023/06/21 09:32:45;;;;;;;12.57;11.67;;;26.90;61.20;;;;;;6263773;28;20319;-81
2023/06/21 09:35:48;;;;;;;13.30;12.23;;;26.90;61.70;;;;;;6256048;28;20238;-80
2023/06/21 09:38:52;;;;;;;12.20;11.40;;;26.80;61.60;;;;;;6262036;28;20293;-81
2023/06/21 09:41:56;;;;;;;11.73;11.03;;;26.60;62.10;;;;;;6255975;28;20279;-79
2023/06/21 09:45:00;;;;;;;13.03;12.03;;;26.70;62.10;;;;;;6247912;28;20348;-80
2023/06/21 09:48:03;;;;;;;12.13;11.43;;;26.80;61.50;;;;;;6263522;28;20245;-78
2023/06/21 09:51:08;;;;;;;12.07;11.30;;;26.90;62.40;;;;;;6257343;28;20299;-81
2023/06/21 09:54:12;;;;;;;12.67;11.67;;;27.20;61.30;;;;;;6264471;28;20835;-81
2023/06/21 09:57:17;;;;;;;12.33;11.43;;;27.40;60.90;;;;;;6264042;28;20237;-82
2023/06/21 10:00:20;;;;;;;11.27;10.50;;;27.60;60.40;;;;;;6251966;28;20835;-82
2023/06/21 10:03:24;;;;;;;11.33;10.57;;;27.40;60.50;;;;;;6258238;28;20325;-82
2023/06/21 10:06:29;;;;;;;12.77;11.37;;;27.20;61.00;;;;;;6263742;28;20256;-83
2023/06/21 10:09:37;;;;;;;12.27;11.47;;;27.20;61.50;;;;;;6257116;28;20237;-83
2023/06/21 10:12:52;;;;;;;10.40;9.70;;;27.50;61.10;;;;;;6259708;28;20317;-83
2023/06/21 10:16:00;;;;;;;11.10;10.20;;;27.70;60.50;;;;;;6234240;28;20380;-80
2023/06/21 10:19:04;;;;;;;10.80;10.10;;;27.70;60.10;;;;;;6234286;28;20305;-83
2023/06/21 10:22:09;;;;;;;12.10;11.10;;;27.70;59.70;;;;;;6235249;28;20235;-80
2023/06/21 10:25:15;;;;;;;11.90;11.10;;;27.70;59.70;;;;;;6230171;28;20296;-82
2023/06/21 10:28:22;;;;;;;11.23;10.43;;;27.70;59.50;;;;;;6237502;28;20724;-79
2023/06/21 10:31:26;;;;;;;11.73;11.03;;;27.50;60.00;;;;;;6220555;28;20817;-83
2023/06/21 10:34:37;;;;;;;11.87;11.07;;;27.80;59.30;;;;;;6237824;28;20585;-84
2023/06/21 10:37:51;;;;;;;10.90;10.20;;;27.60;59.50;;;;;;6229627;28;20274;-81
2023/06/21 10:40:55;;;;;;;9.97;9.30;;;27.50;59.70;;;;;;6232820;28;21034;-80
2023/06/21 10:44:00;;;;;;;11.10;10.10;;;27.80;59.00;;;;;;6236016;28;20238;-82
2023/06/21 10:47:03;;;;;;;10.70;10.03;;;27.60;58.30;;;;;;6235005;28;20473;-82
2023/06/21 10:50:08;;;;;;;10.53;9.83;;;27.70;58.60;;;;;;6238430;28;20241;-83
2023/06/21 10:53:13;;;;;;;10.00;9.20;;;27.60;58.30;;;;;;6254673;28;20245;-83
2023/06/21 10:56:18;;;;;;;10.20;9.70;;;27.40;58.70;;;;;;6262312;28;20240;-80
2023/06/21 10:59:24;;;;;;;10.40;9.50;;;27.40;58.90;;;;;;6246285;28;20234;-80
2023/06/21 11:02:29;;;;;;;10.30;9.60;;;27.30;58.70;;;;;;6256508;28;20234;-85
2023/06/21 11:05:34;;;;;;;10.97;10.20;;;27.20;59.40;;;;;;6264311;28;20245;-83
2023/06/21 11:08:39;;;;;;;9.50;8.93;;;27.30;58.80;;;;;;6256263;28;20757;-85
2023/06/21 11:11:50;;;;;;;9.60;9.00;;;27.50;58.20;;;;;;6259929;28;20329;-80
2023/06/21 11:14:57;;;;;;;9.70;8.90;;;27.80;58.20;;;;;;6254520;28;20742;-83
2023/06/21 11:18:01;;;;;;;9.73;8.83;;;28.10;57.50;;;;;;6265253;28;20241;-81
2023/06/21 11:21:06;;;;;;;8.80;8.23;;;28.10;57.50;;;;;;6265319;28;20228;-81
2023/06/21 11:24:11;;;;;;;9.10;8.23;;;28.30;57.10;;;;;;6256304;28;20396;-82
2023/06/21 11:27:14;;;;;;;8.30;7.77;;;28.30;56.60;;;;;;6261895;28;20391;-80
2023/06/21 11:30:19;;;;;;;8.00;7.60;;;28.50;56.20;;;;;;6263384;28;20233;-82
2023/06/21 11:33:29;;;;;;;7.80;7.20;;;28.50;55.80;;;;;;6254278;28;20284;-81
2023/06/21 11:36:35;;;;;;;7.10;6.80;;;28.60;55.90;;;;;;6261711;28;20245;-82
2023/06/21 11:39:40;;;;;;;7.63;7.23;;;28.70;56.10;;;;;;6254703;28;20242;-80
2023/06/21 11:42:45;;;;;;;7.57;7.07;;;28.70;54.70;;;;;;6260531;28;20242;-81
2023/06/21 11:46:00;;;;;;;7.93;7.43;;;28.50;55.60;;;;;;6259731;28;20266;-81
2023/06/21 11:49:04;;;;;;;8.43;8.00;;;28.50;55.40;;;;;;6239848;28;20226;-79
2023/06/21 11:52:07;;;;;;;8.13;7.53;;;28.10;56.60;;;;;;6237320;28;20737;-79
2023/06/21 11:55:14;;;;;;;8.47;7.77;;;27.90;57.20;;;;;;6236861;28;20226;-80
2023/06/21 11:58:19;;;;;;;8.87;8.47;;;27.80;58.00;;;;;;6260366;28;20311;-81
2023/06/21 12:01:23;;;;;;;9.43;8.87;;;27.70;58.00;;;;;;6261526;28;20238;-78
2023/06/21 12:04:27;;;;;;;9.37;8.63;;;27.60;58.70;;;;;;6259889;28;20265;-80
2023/06/21 12:07:30;;;;;;;9.03;8.57;;;27.50;58.50;;;;;;6260578;28;20237;-80
2023/06/21 12:10:33;;;;;;;8.73;8.00;;;27.50;58.50;;;;;;6228461;28;20428;-81
2023/06/21 12:13:38;;;;;;;8.30;7.70;;;27.50;57.80;;;;;;6236551;28;20242;-80
2023/06/21 12:16:43;;;;;;;9.07;8.37;;;27.40;58.50;;;;;;6231173;28;20257;-79
2023/06/21 12:19:46;;;;;;;8.53;8.03;;;27.50;58.40;;;;;;6235889;28;20227;-79
2023/06/21 12:22:50;;;;;;;8.63;8.03;;;27.70;57.80;;;;;;6224898;28;20694;-79
2023/06/21 12:25:55;;;;;;;7.53;6.97;;;27.80;57.20;;;;;;6234556;28;20974;-80
2023/06/21 12:28:58;;;;;;;8.13;7.40;;;27.80;57.90;;;;;;6237496;28;20837;-80
2023/06/21 12:32:04;;;;;;;8.33;7.83;;;28.00;57.00;;;;;;6223915;28;20238;-80
2023/06/21 12:35:08;;;;;;;8.90;8.10;;;28.20;56.90;;;;;;6231259;28;20318;-78
2023/06/21 12:38:16;;;;;;;8.53;7.80;;;27.90;57.00;;;;;;6226658;28;20636;-80
2023/06/21 12:41:23;;;;;;;8.67;8.17;;;28.00;57.30;;;;;;6234913;28;20755;-80
2023/06/21 12:44:29;;;;;;;7.63;7.20;;;28.30;56.90;;;;;;6235211;28;20251;-80
2023/06/21 12:47:33;;;;;;;7.70;7.23;;;28.30;56.60;;;;;;6241045;28;20247;-82
2023/06/21 12:50:36;;;;;;;7.53;7.00;;;28.00;57.60;;;;;;6234341;28;20764;-82
2023/06/21 12:53:42;;;;;;;7.63;7.30;;;28.10;57.70;;;;;;6221979;28;20606;-80
2023/06/21 12:56:49;;;;;;;8.33;7.83;;;28.50;57.50;;;;;;6230305;28;20242;-79
2023/06/21 12:59:52;;;;;;;7.33;6.87;;;28.50;57.00;;;;;;6228843;28;20231;-80
2023/06/21 13:02:57;;;;;;;8.30;7.77;;;28.60;56.00;;;;;;6233337;28;20235;-78
2023/06/21 13:06:02;;;;;;;7.67;6.97;;;28.50;56.50;;;;;;6224381;28;20239;-79
2023/06/21 13:09:06;;;;;;;7.43;6.80;;;28.50;56.50;;;;;;6227895;28;20227;-79
2023/06/21 13:12:10;;;;;;;7.60;7.10;;;28.30;56.00;;;;;;6225126;28;20239;-80
2023/06/21 13:15:13;;;;;;;8.20;7.50;;;28.10;56.60;;;;;;6226821;28;20227;-81
2023/06/21 13:18:18;;;;;;;7.10;6.73;;;28.10;56.80;;;;;;6236156;28;20728;-81
2023/06/21 13:21:22;;;;;;;7.50;7.20;;;28.50;55.40;;;;;;6232630;28;20317;-78
2023/06/21 13:24:25;;;;;;;7.33;6.93;;;28.70;55.20;;;;;;6238650;28;20250;-80
2023/06/21 13:27:28;;;;;;;7.40;6.90;;;28.90;54.30;;;;;;6233941;28;20265;-80
2023/06/21 13:30:32;;;;;;;6.63;6.07;;;29.10;53.60;;;;;;6226410;28;20587;-80
2023/06/21 13:33:36;;;;;;;6.95;6.22;;;28.90;54.10;;;;;;6232100;28;20246;-81
2023/06/21 13:36:39;;;;;;;7.20;6.85;;;29.10;54.10;;;;;;6218593;28;20227;-81
2023/06/21 13:39:42;;;;;;;6.73;6.10;;;29.10;52.90;;;;;;6237697;28;20376;-82
2023/06/21 13:42:45;;;;;;;7.63;7.30;;;29.10;52.60;;;;;;6231113;28;20243;-81
2023/06/21 13:45:48;;;;;;;6.30;6.05;;;29.00;51.80;;;;;;6226597;28;20471;-79
2023/06/21 13:48:53;;;;;;;7.17;6.77;;;29.00;51.80;;;;;;6226492;28;20291;-80
2023/06/21 13:51:56;;;;;;;7.43;7.03;;;29.00;52.00;;;;;;6231475;28;20239;-79
2023/06/21 13:55:00;;;;;;;6.93;6.63;;;29.20;52.20;;;;;;6226525;28;20337;-81
2023/06/21 13:58:03;;;;;;;7.00;6.60;;;29.20;51.90;;;;;;6234677;28;20235;-80
2023/06/21 14:01:06;;;;;;;6.27;5.93;;;29.40;51.50;;;;;;6223005;28;20239;-79
2023/06/21 14:04:11;;;;;;;7.68;7.30;;;29.30;50.60;;;;;;6225709;28;20350;-79
2023/06/21 14:07:15;;;;;;;7.70;7.32;;;29.20;51.00;;;;;;6230277;28;20291;-81
2023/06/21 14:10:18;;;;;;;7.13;6.53;;;29.40;50.80;;;;;;6230870;28;20707;-81
2023/06/21 14:13:22;;;;;;;7.78;7.07;;;29.50;50.00;;;;;;6238240;28;20299;-80
2023/06/21 14:16:25;;;;;;;7.88;7.47;;;29.50;50.40;;;;;;6249954;28;20742;-82
2023/06/21 14:19:30;;;;;;;7.03;6.63;;;29.50;50.70;;;;;;6249846;28;20230;-82
2023/06/21 14:22:34;;;;;;;7.00;6.50;;;29.50;50.10;;;;;;6255110;28;20273;-84
2023/06/21 14:25:38;;;;;;;7.50;7.07;;;29.20;49.90;;;;;;6254145;28;20245;-81
2023/06/21 14:28:42;;;;;;;6.97;6.65;;;29.20;50.80;;;;;;6252584;28;20335;-81
2023/06/21 14:31:46;;;;;;;7.90;7.40;;;29.40;50.00;;;;;;6260390;28;20244;-83
2023/06/21 14:34:53;;;;;;;7.60;7.30;;;29.50;50.30;;;;;;6250745;28;20241;-82
2023/06/21 14:37:57;;;;;;;6.93;6.53;;;29.50;50.40;;;;;;6252338;28;20230;-81
2023/06/21 14:41:00;;;;;;;7.53;7.22;;;29.50;50.20;;;;;;6254018;28;20840;-81
2023/06/21 14:44:04;;;;;;;7.57;7.07;;;29.50;50.50;;;;;;6248697;28;20330;-81
2023/06/21 14:47:07;;;;;;;6.88;6.53;;;29.50;49.80;;;;;;6249674;28;20810;-85
2023/06/21 14:50:12;;;;;;;7.10;6.70;;;29.70;49.60;;;;;;6251770;28;20229;-80
2023/06/21 14:53:18;;;;;;;7.45;7.05;;;29.70;49.60;;;;;;6254973;28;20254;-83
2023/06/21 14:56:21;;;;;;;8.65;8.05;;;29.70;49.90;;;;;;6255689;28;20237;-81
2023/06/21 14:59:26;;;;;;;6.70;6.40;;;29.70;50.90;;;;;;6248391;28;20368;-82
2023/06/21 15:02:29;;;;;;;8.35;7.75;;;29.60;50.40;;;;;;6248160;28;20377;-83
2023/06/21 15:05:34;;;;;;;7.15;6.85;;;29.50;49.90;;;;;;6260378;28;20237;-83
2023/06/21 15:08:37;;;;;;;7.20;6.82;;;29.30;50.30;;;;;;6253746;28;20253;-81
2023/06/21 15:11:41;;;;;;;7.22;6.78;;;29.10;49.90;;;;;;6253037;28;20356;-81
2023/06/21 15:14:45;;;;;;;7.38;6.78;;;29.00;50.00;;;;;;6252302;28;20233;-81
2023/06/21 15:17:48;;;;;;;7.78;7.00;;;29.00;50.00;;;;;;6257445;28;20342;-81
2023/06/21 15:20:53;;;;;;;7.28;6.97;;;29.10;49.90;;;;;;6251328;28;20303;-81
2023/06/21 15:23:58;;;;;;;6.20;5.90;;;29.30;49.60;;;;;;6252055;28;20307;-83
2023/06/21 15:27:01;;;;;;;6.60;6.18;;;29.50;48.60;;;;;;6256771;28;20287;-81
2023/06/21 15:30:05;;;;;;;6.53;6.30;;;29.40;48.20;;;;;;6256154;28;20291;-81
2023/06/21 15:33:08;;;;;;;5.97;5.78;;;29.40;48.40;;;;;;6257124;28;20737;-82
2023/06/21 15:36:13;;;;;;;6.28;6.07;;;29.50;48.50;;;;;;6230641;28;20310;-83
2023/06/21 15:39:16;;;;;;;6.40;6.15;;;29.50;48.50;;;;;;6221569;28;20304;-77
2023/06/21 15:42:20;;;;;;;5.97;5.70;;;29.70;47.80;;;;;;6248486;28;20252;-78
2023/06/21 15:45:23;;;;;;;6.70;6.40;;;29.50;48.00;;;;;;6250118;28;20852;-79
2023/06/21 15:48:26;;;;;;;6.15;5.95;;;29.50;49.20;;;;;;6255509;28;20303;-78